createdAt,value
2023-02-13T00:02:07.092Z,31.30
2023-02-13T00:04:39.986Z,31.20
2023-02-13T00:07:12.362Z,30.80
2023-02-13T00:09:44.362Z,29.70
2023-02-13T00:12:18.683Z,29.40
2023-02-13T00:14:51.028Z,31.00
2023-02-13T00:17:23.670Z,29.60
2023-02-13T00:19:55.874Z,29.60
2023-02-13T00:22:28.032Z,33.30
2023-02-13T00:25:00.602Z,32.10
2023-02-13T00:27:33.193Z,32.90
2023-02-13T00:30:05.734Z,29.90
2023-02-13T00:32:40.888Z,32.20
2023-02-13T00:35:13.270Z,31.70
2023-02-13T00:37:45.583Z,28.40
2023-02-13T00:40:20.465Z,27.50
2023-02-13T00:42:52.930Z,28.30
2023-02-13T00:45:27.462Z,28.10
2023-02-13T00:48:00.884Z,25.80
2023-02-13T00:50:33.241Z,27.90
2023-02-13T00:53:05.385Z,25.50
2023-02-13T00:55:37.541Z,28.20
2023-02-13T00:58:09.752Z,29.00
2023-02-13T01:00:42.503Z,26.90
2023-02-13T01:03:14.695Z,27.90
2023-02-13T01:05:47.178Z,28.50
2023-02-13T01:08:20.889Z,27.10
2023-02-13T01:10:53.350Z,27.90
2023-02-13T01:13:25.802Z,27.80
2023-02-13T01:16:01.765Z,26.70
2023-02-13T01:18:33.897Z,25.80
2023-02-13T01:21:08.479Z,27.00
2023-02-13T01:23:42.309Z,28.00
2023-02-13T01:26:18.809Z,27.90
2023-02-13T01:29:11.307Z,27.30
2023-02-13T01:31:43.371Z,27.80
2023-02-13T01:34:16.083Z,29.60
2023-02-13T01:36:53.596Z,28.00
2023-02-13T01:39:25.766Z,29.10
2023-02-13T01:41:57.841Z,30.60
2023-02-13T01:44:54.608Z,28.70
2023-02-13T01:47:35.260Z,28.60
2023-02-13T01:50:13.974Z,29.00
2023-02-13T01:52:52.161Z,29.10
2023-02-13T01:55:25.697Z,29.40
2023-02-13T01:58:04.295Z,30.50
2023-02-13T02:00:38.114Z,29.10
2023-02-13T02:03:15.780Z,31.20
2023-02-13T02:05:50.421Z,30.90
2023-02-13T02:08:23.210Z,30.40
2023-02-13T02:11:03.003Z,29.80
2023-02-13T02:13:34.866Z,28.50
2023-02-13T02:16:11.438Z,29.30
2023-02-13T02:18:43.647Z,29.80
2023-02-13T02:21:53.976Z,28.40
2023-02-13T02:24:51.346Z,29.40
2023-02-13T02:27:42.587Z,29.10
2023-02-13T02:30:48.794Z,32.00
2023-02-13T02:33:38.719Z,32.50
2023-02-13T02:36:30.391Z,32.80
2023-02-13T02:39:12.348Z,31.90
2023-02-13T02:41:59.860Z,33.90
2023-02-13T02:44:44.689Z,33.70
2023-02-13T02:47:43.777Z,33.60
2023-02-13T02:50:39.333Z,32.30
2023-02-13T02:53:23.109Z,33.60
2023-02-13T02:56:02.978Z,33.30
2023-02-13T02:59:00.846Z,34.40
2023-02-13T03:01:52.765Z,33.90
2023-02-13T03:04:47.559Z,35.20
2023-02-13T03:07:21.181Z,34.40
2023-02-13T03:10:14.993Z,34.50
2023-02-13T03:13:12.947Z,36.70
2023-02-13T03:16:01.060Z,36.90
2023-02-13T03:18:54.830Z,38.10
2023-02-13T03:21:54.798Z,37.30
2023-02-13T03:24:35.414Z,35.30
2023-02-13T03:27:16.427Z,36.90
2023-02-13T03:30:12.006Z,37.80
2023-02-13T03:32:49.395Z,37.70
2023-02-13T03:35:52.539Z,38.60
2023-02-13T03:38:34.201Z,38.80
2023-02-13T03:41:21.728Z,37.00
2023-02-13T03:44:02.402Z,40.00
2023-02-13T03:46:42.552Z,37.70
2023-02-13T03:49:40.112Z,39.60
2023-02-13T03:52:17.582Z,39.80
2023-02-13T03:55:13.672Z,38.40
2023-02-13T03:58:05.177Z,39.80
2023-02-13T04:00:42.623Z,41.80
2023-02-13T04:03:23.143Z,42.00
2023-02-13T04:05:59.709Z,42.50
2023-02-13T04:08:32.661Z,39.90
2023-02-13T04:11:11.889Z,41.90
2023-02-13T04:13:48.636Z,44.60
2023-02-13T04:16:30.999Z,43.90
2023-02-13T04:19:05.259Z,42.20
2023-02-13T04:21:39.022Z,44.90
2023-02-13T04:24:12.518Z,44.10
2023-02-13T04:26:47.282Z,44.10
2023-02-13T04:29:28.184Z,43.00
2023-02-13T04:32:01.816Z,44.50
2023-02-13T04:37:05.006Z,41.80
2023-02-13T04:39:38.181Z,44.30
2023-02-13T04:42:10.884Z,45.70
2023-02-13T04:44:43.134Z,45.90
2023-02-13T04:47:15.276Z,45.10
2023-02-13T04:49:47.465Z,46.10
2023-02-13T04:52:19.547Z,42.90
2023-02-13T04:54:52.064Z,45.50
2023-02-13T04:57:24.165Z,42.30
2023-02-13T04:59:56.096Z,40.30
2023-02-13T05:02:28.521Z,39.00
2023-02-13T05:05:00.876Z,37.60
2023-02-13T05:07:33.036Z,38.70
2023-02-13T05:10:05.313Z,38.10
2023-02-13T05:12:37.748Z,39.80
2023-02-13T05:15:12.586Z,39.70
2023-02-13T05:17:47.205Z,37.50
2023-02-13T05:20:19.677Z,39.20
2023-02-13T05:23:09.514Z,36.70
2023-02-13T05:25:44.052Z,36.60
2023-02-13T05:28:30.178Z,36.60
2023-02-13T05:31:03.102Z,39.40
2023-02-13T05:33:35.425Z,39.50
2023-02-13T05:36:09.199Z,39.70
2023-02-13T05:38:42.476Z,42.20
2023-02-13T05:41:14.978Z,34.10
2023-02-13T05:43:47.361Z,44.70
2023-02-13T05:46:20.694Z,44.10
2023-02-13T05:48:53.112Z,43.00
2023-02-13T05:51:26.083Z,41.00
2023-02-13T05:53:58.166Z,40.70
2023-02-13T05:56:30.795Z,40.90
2023-02-13T05:59:03.505Z,43.00
2023-02-13T06:01:38.333Z,38.10
2023-02-13T06:04:13.769Z,39.30
2023-02-13T06:06:45.969Z,36.50
2023-02-13T06:09:18.223Z,33.00
2023-02-13T06:11:51.392Z,32.30
2023-02-13T06:14:23.664Z,31.30
2023-02-13T06:16:56.451Z,31.30
2023-02-13T06:19:28.789Z,30.00
2023-02-13T06:22:01.229Z,29.50
2023-02-13T06:24:33.525Z,29.00
2023-02-13T06:27:06.758Z,28.60
2023-02-13T06:29:39.192Z,26.60
2023-02-13T06:32:11.372Z,26.70
2023-02-13T06:34:43.626Z,27.40
2023-02-13T06:37:15.751Z,30.00
2023-02-13T06:39:51.934Z,30.60
2023-02-13T06:42:24.392Z,28.00
2023-02-13T06:44:56.596Z,30.70
2023-02-13T06:47:28.953Z,28.90
2023-02-13T06:50:00.902Z,28.40
2023-02-13T06:52:33.184Z,33.00
2023-02-13T06:55:11.885Z,30.00
2023-02-13T06:57:45.128Z,30.10
2023-02-13T07:00:20.856Z,31.40
2023-02-13T07:02:53.825Z,30.30
2023-02-13T07:05:26.483Z,33.70
2023-02-13T07:07:59.108Z,30.90
2023-02-13T07:10:31.848Z,31.90
2023-02-13T07:13:06.255Z,32.00
2023-02-13T07:15:39.179Z,31.00
2023-02-13T07:18:12.179Z,29.50
2023-02-13T07:20:44.541Z,29.80
2023-02-13T07:23:16.880Z,31.10
2023-02-13T07:25:49.902Z,30.60
2023-02-13T07:28:22.641Z,31.10
2023-02-13T07:30:56.435Z,27.50
2023-02-13T07:33:29.248Z,28.30
2023-02-13T07:36:03.790Z,28.30
2023-02-13T07:38:37.385Z,31.30
2023-02-13T07:41:10.240Z,34.10
2023-02-13T07:43:42.659Z,35.20
2023-02-13T07:46:14.809Z,31.10
2023-02-13T07:48:48.439Z,33.80
2023-02-13T07:53:50.754Z,29.00
2023-02-13T07:56:22.994Z,31.80
2023-02-13T07:58:56.928Z,32.00
2023-02-13T08:01:32.615Z,30.10
2023-02-13T08:04:05.457Z,32.10
2023-02-13T08:06:40.005Z,30.50
2023-02-13T08:09:39.649Z,29.70
2023-02-13T08:12:13.362Z,29.10
2023-02-13T08:14:46.919Z,29.20
2023-02-13T08:17:21.718Z,26.30
2023-02-13T08:19:54.011Z,27.30
2023-02-13T08:22:26.134Z,26.80
2023-02-13T08:24:58.559Z,25.20
2023-02-13T08:27:31.483Z,23.70
2023-02-13T08:30:08.352Z,23.40
2023-02-13T08:32:53.419Z,25.20
2023-02-13T08:35:29.969Z,24.10
2023-02-13T08:38:05.341Z,23.30
2023-02-13T08:40:37.907Z,23.20
2023-02-13T08:43:10.552Z,23.60
2023-02-13T08:45:45.672Z,23.50
2023-02-13T08:48:17.884Z,23.50
2023-02-13T08:50:51.068Z,24.40
2023-02-13T08:53:23.742Z,24.40
2023-02-13T08:56:00.022Z,25.80
2023-02-13T08:58:32.620Z,24.90
2023-02-13T09:01:08.957Z,24.50
2023-02-13T09:03:42.836Z,22.70
2023-02-13T09:06:15.214Z,20.90
2023-02-13T09:08:49.292Z,21.30
2023-02-13T09:11:24.234Z,21.40
2023-02-13T09:13:57.948Z,22.40
2023-02-13T09:16:30.433Z,22.60
2023-02-13T09:19:03.067Z,24.00
2023-02-13T09:21:35.647Z,22.30
2023-02-13T09:24:10.977Z,23.40
2023-02-13T09:26:43.500Z,23.10
2023-02-13T09:29:15.708Z,25.40
2023-02-13T09:31:48.171Z,25.50
2023-02-13T09:34:20.309Z,25.60
2023-02-13T09:36:56.742Z,25.70
2023-02-13T09:39:30.754Z,25.80
2023-02-13T09:42:08.425Z,27.00
2023-02-13T09:44:43.630Z,25.60
2023-02-13T09:47:22.817Z,27.50
2023-02-13T09:49:58.950Z,27.10
2023-02-13T09:52:34.368Z,28.60
2023-02-13T09:55:15.860Z,26.10
2023-02-13T09:57:55.510Z,28.50
2023-02-13T10:00:33.598Z,27.40
2023-02-13T10:03:33.065Z,27.30
2023-02-13T10:06:16.046Z,29.20
2023-02-13T10:09:08.221Z,28.20
2023-02-13T10:12:14.678Z,28.90
2023-02-13T10:14:54.166Z,28.50
2023-02-13T10:17:30.461Z,28.90
2023-02-13T10:20:06.884Z,28.10
2023-02-13T10:22:46.580Z,30.00
2023-02-13T10:25:24.256Z,29.00
2023-02-13T10:28:02.152Z,27.60
2023-02-13T10:30:38.424Z,28.80
2023-02-13T10:33:22.156Z,27.40
2023-02-13T10:36:00.538Z,27.20
2023-02-13T10:38:37.728Z,31.00
2023-02-13T10:41:37.025Z,28.60
2023-02-13T10:44:25.401Z,32.00
2023-02-13T10:47:09.852Z,31.00
2023-02-13T10:49:56.627Z,32.70
2023-02-13T10:52:44.990Z,32.50
2023-02-13T10:55:33.015Z,35.00
2023-02-13T10:58:17.168Z,33.50
2023-02-13T11:00:55.071Z,27.10
2023-02-13T11:03:29.195Z,37.70
2023-02-13T11:06:07.117Z,31.70
2023-02-13T11:08:44.663Z,29.40
2023-02-13T11:11:34.400Z,28.90
2023-02-13T11:14:18.124Z,28.80
2023-02-13T11:17:00.222Z,30.00
2023-02-13T11:19:37.409Z,29.00
2023-02-13T11:22:13.896Z,28.80
2023-02-13T11:24:54.893Z,30.20
2023-02-13T11:27:33.644Z,26.40
2023-02-13T11:30:09.478Z,28.20
2023-02-13T11:32:42.495Z,26.90
2023-02-13T11:35:33.612Z,26.80
2023-02-13T11:38:27.752Z,26.90
2023-02-13T11:41:10.616Z,28.00
2023-02-13T11:43:51.234Z,28.60
2023-02-13T11:46:26.170Z,27.30
2023-02-13T11:49:04.112Z,29.60
2023-02-13T11:51:48.330Z,29.40
2023-02-13T11:54:33.703Z,27.30
2023-02-13T11:57:20.769Z,26.50
2023-02-13T11:59:54.325Z,28.30
2023-02-13T12:05:16.872Z,27.00
2023-02-13T12:07:50.527Z,25.70
2023-02-13T12:10:31.272Z,24.40
2023-02-13T12:13:15.998Z,26.60
2023-02-13T12:15:52.078Z,26.30
2023-02-13T12:18:31.363Z,24.90
2023-02-13T12:21:13.858Z,24.10
2023-02-13T12:23:57.414Z,25.00
2023-02-13T12:26:37.552Z,25.70
2023-02-13T12:29:36.275Z,26.40
2023-02-13T12:32:19.851Z,27.00
2023-02-13T12:35:09.677Z,31.10
2023-02-13T12:37:54.198Z,27.80
2023-02-13T12:40:58.702Z,29.60
2023-02-13T12:43:54.772Z,27.80
2023-02-13T12:46:31.807Z,26.50
2023-02-13T12:49:16.661Z,24.90
2023-02-13T12:51:59.895Z,23.00
2023-02-13T12:54:44.477Z,25.40
2023-02-13T12:57:28.870Z,26.80
2023-02-13T13:00:17.533Z,24.20
2023-02-13T13:03:13.205Z,24.60
2023-02-13T13:06:11.342Z,23.20
2023-02-13T13:09:21.570Z,22.40
2023-02-13T13:12:37.878Z,22.40
2023-02-13T13:15:23.635Z,23.50
2023-02-13T13:18:06.568Z,22.70
2023-02-13T13:21:00.142Z,22.70
2023-02-13T13:23:39.093Z,23.20
2023-02-13T13:26:21.513Z,21.40
2023-02-13T13:29:01.223Z,21.80
2023-02-13T13:31:39.224Z,22.60
2023-02-13T13:34:22.886Z,20.60
2023-02-13T13:37:01.460Z,22.30
2023-02-13T13:39:45.198Z,23.00
2023-02-13T13:42:26.954Z,22.10
2023-02-13T13:45:32.185Z,25.20
2023-02-13T13:48:29.875Z,26.10
2023-02-13T13:51:03.284Z,31.10
2023-02-13T13:53:36.406Z,34.80
2023-02-13T13:56:10.506Z,30.00
2023-02-13T13:58:48.333Z,34.20
2023-02-13T14:01:32.930Z,35.20
2023-02-13T14:04:30.042Z,32.50
2023-02-13T14:07:35.012Z,28.50
2023-02-13T14:10:08.813Z,27.70
2023-02-13T14:12:52.646Z,28.20
2023-02-13T14:15:55.386Z,30.00
2023-02-13T14:18:29.343Z,32.70
2023-02-13T14:21:04.943Z,26.70
2023-02-13T14:23:50.715Z,26.90
2023-02-13T14:26:33.300Z,22.40
2023-02-13T14:29:28.913Z,17.90
2023-02-13T14:32:17.031Z,16.80
2023-02-13T14:34:59.370Z,11.70
2023-02-13T14:37:53.138Z,14.00
2023-02-13T14:40:54.623Z,10.90
2023-02-13T14:43:33.549Z,9.20
2023-02-13T14:46:17.851Z,10.30
2023-02-13T14:48:58.061Z,11.70
2023-02-13T14:51:37.716Z,10.40
2023-02-13T14:54:24.528Z,11.00
2023-02-13T14:57:02.395Z,14.00
2023-02-13T14:59:42.492Z,13.30
2023-02-13T15:02:23.511Z,12.20
2023-02-13T15:05:00.850Z,12.50
2023-02-13T15:07:37.502Z,10.70
2023-02-13T15:10:30.336Z,10.50
2023-02-13T15:13:06.537Z,12.10
2023-02-13T15:15:39.861Z,11.10
2023-02-13T15:18:19.387Z,13.30
2023-02-13T15:20:55.697Z,16.10
2023-02-13T15:23:31.069Z,15.10
2023-02-13T15:26:06.096Z,15.50
2023-02-13T15:28:39.690Z,13.70
2023-02-13T15:31:25.802Z,11.90
2023-02-13T15:33:59.130Z,8.50
2023-02-13T15:36:43.805Z,8.30
2023-02-13T15:39:22.128Z,7.70
2023-02-13T15:41:58.590Z,7.00
2023-02-13T15:44:33.585Z,6.80
2023-02-13T15:47:09.680Z,6.60
2023-02-13T15:49:44.905Z,6.20
2023-02-13T15:52:25.225Z,5.80
2023-02-13T15:55:01.818Z,5.70
2023-02-13T15:57:36.512Z,6.10
2023-02-13T16:00:15.891Z,8.80
2023-02-13T16:02:50.373Z,11.20
2023-02-13T16:05:38.573Z,13.80
2023-02-13T16:08:29.876Z,9.80
2023-02-13T16:11:28.418Z,11.50
2023-02-13T16:14:19.225Z,12.10
2023-02-13T16:16:55.178Z,14.40
2023-02-13T16:19:46.018Z,11.00
2023-02-13T16:22:32.854Z,9.60
2023-02-13T16:25:18.083Z,11.10
2023-02-13T16:27:53.306Z,10.00
2023-02-13T16:30:35.835Z,8.00
2023-02-13T16:33:29.624Z,8.80
2023-02-13T16:36:29.583Z,9.90
2023-02-13T16:39:24.436Z,9.50
2023-02-13T16:41:57.513Z,10.60
2023-02-13T16:47:05.515Z,13.40
2023-02-13T16:49:39.384Z,12.70
2023-02-13T16:52:22.357Z,18.30
2023-02-13T16:55:00.536Z,15.90
2023-02-13T16:57:34.907Z,17.00
2023-02-13T17:00:23.761Z,17.60
2023-02-13T17:03:00.117Z,14.60
2023-02-13T17:05:32.716Z,18.30
2023-02-13T17:08:05.275Z,18.10
2023-02-13T17:10:39.788Z,15.50
2023-02-13T17:13:19.712Z,18.20
2023-02-13T17:15:54.905Z,16.50
2023-02-13T17:18:27.750Z,20.50
2023-02-13T17:21:00.091Z,17.50
2023-02-13T17:23:32.398Z,18.20
2023-02-13T17:26:05.451Z,18.00
2023-02-13T17:28:37.933Z,16.90
2023-02-13T17:31:14.288Z,15.10
2023-02-13T17:33:46.730Z,15.00
2023-02-13T17:36:19.105Z,14.30
2023-02-13T17:38:51.404Z,14.10
2023-02-13T17:41:24.021Z,15.60
2023-02-13T17:43:56.635Z,19.40
2023-02-13T17:46:29.123Z,24.10
2023-02-13T17:49:01.398Z,21.10
2023-02-13T17:51:34.384Z,20.90
2023-02-13T17:54:07.172Z,14.20
2023-02-13T17:56:39.399Z,19.10
2023-02-13T17:59:12.013Z,20.80
2023-02-13T18:01:44.331Z,20.80
2023-02-13T18:04:16.664Z,20.50
2023-02-13T18:06:52.432Z,19.90
2023-02-13T18:09:25.295Z,19.70
2023-02-13T18:12:05.478Z,18.50
2023-02-13T18:14:38.732Z,18.30
2023-02-13T18:17:13.430Z,19.10
2023-02-13T18:19:46.822Z,20.60
2023-02-13T18:22:19.533Z,30.50
2023-02-13T18:24:52.380Z,21.00
2023-02-13T18:27:27.360Z,23.50
2023-02-13T18:29:59.686Z,19.80
2023-02-13T18:32:34.683Z,20.00
2023-02-13T18:35:10.400Z,21.30
2023-02-13T18:37:43.072Z,21.00
2023-02-13T18:40:17.906Z,19.40
2023-02-13T18:42:51.280Z,20.90
2023-02-13T18:45:25.833Z,19.00
2023-02-13T18:47:58.362Z,22.80
2023-02-13T18:50:31.516Z,16.50
2023-02-13T18:53:03.641Z,19.00
2023-02-13T18:55:36.531Z,18.30
2023-02-13T18:58:08.808Z,17.20
2023-02-13T19:00:42.157Z,16.70
2023-02-13T19:03:14.559Z,15.90
2023-02-13T19:05:46.863Z,15.40
2023-02-13T19:08:19.871Z,15.60
2023-02-13T19:10:52.858Z,14.00
2023-02-13T19:13:25.321Z,10.80
2023-02-13T19:15:58.365Z,13.50
2023-02-13T19:18:32.000Z,12.20
2023-02-13T19:23:36.634Z,10.20
2023-02-13T19:26:15.711Z,10.10
2023-02-13T19:28:48.538Z,10.50
2023-02-13T19:33:54.703Z,9.90
2023-02-13T19:36:30.157Z,6.50
2023-02-13T19:39:06.548Z,9.30
2023-02-13T19:41:40.909Z,11.50
2023-02-13T19:44:13.916Z,15.50
2023-02-13T19:46:46.662Z,14.60
2023-02-13T19:49:21.301Z,15.90
2023-02-13T19:51:57.496Z,14.90
2023-02-13T19:54:36.563Z,15.90
2023-02-13T19:57:12.538Z,14.60
2023-02-13T19:59:45.457Z,13.80
2023-02-13T20:02:19.360Z,14.80
2023-02-13T20:04:53.133Z,17.30
2023-02-13T20:09:56.509Z,14.70
2023-02-13T20:12:31.144Z,15.10
2023-02-13T20:15:03.102Z,13.90
2023-02-13T20:17:37.422Z,13.60
2023-02-13T20:20:14.493Z,13.50
2023-02-13T20:25:23.264Z,13.00
2023-02-13T20:27:55.607Z,13.90
2023-02-13T20:30:29.502Z,24.60
2023-02-13T20:33:01.743Z,23.70
2023-02-13T20:35:33.850Z,18.00
2023-02-13T20:38:06.030Z,18.10
2023-02-13T20:40:38.331Z,15.10
2023-02-13T20:43:10.891Z,15.90
2023-02-13T20:45:43.259Z,16.30
2023-02-13T20:48:15.798Z,16.10
2023-02-13T20:51:02.551Z,14.20
2023-02-13T20:53:36.573Z,13.40
2023-02-13T20:56:11.968Z,10.40
2023-02-13T20:58:46.332Z,10.40
2023-02-13T21:01:20.829Z,10.30
2023-02-13T21:03:55.198Z,10.70
2023-02-13T21:06:30.241Z,9.00
2023-02-13T21:09:03.146Z,8.80
2023-02-13T21:11:35.541Z,9.80
2023-02-13T21:14:13.775Z,8.90
2023-02-13T21:16:54.999Z,10.00
2023-02-13T21:19:27.461Z,11.80
2023-02-13T21:22:13.583Z,14.60
2023-02-13T21:24:46.421Z,11.90
2023-02-13T21:27:19.287Z,12.70
2023-02-13T21:29:51.408Z,13.50
2023-02-13T21:32:24.214Z,13.00
2023-02-13T21:34:57.853Z,13.30
2023-02-13T21:37:30.842Z,12.40
2023-02-13T21:40:03.071Z,14.90
2023-02-13T21:42:34.967Z,14.60
2023-02-13T21:45:08.126Z,17.90
2023-02-13T21:47:40.240Z,13.00
2023-02-13T21:50:13.336Z,15.20
2023-02-13T21:52:45.770Z,14.40
2023-02-13T21:55:18.062Z,13.80
2023-02-13T21:57:50.569Z,12.40
2023-02-13T22:00:23.349Z,13.20
2023-02-13T22:02:55.389Z,14.00
2023-02-13T22:05:27.973Z,14.10
2023-02-13T22:08:11.957Z,12.60
2023-02-13T22:13:14.646Z,13.10
2023-02-13T22:15:46.673Z,12.70
2023-02-13T22:18:18.704Z,12.90
2023-02-13T22:20:51.555Z,12.70
2023-02-13T22:23:23.546Z,13.00
2023-02-13T22:25:55.638Z,11.90
2023-02-13T22:28:28.430Z,13.30
2023-02-13T22:31:01.833Z,11.70
2023-02-13T22:36:06.924Z,13.60
2023-02-13T22:38:40.645Z,13.30
2023-02-13T22:41:15.340Z,14.00
2023-02-13T22:43:48.287Z,16.00
2023-02-13T22:46:23.632Z,14.80
2023-02-13T22:48:57.096Z,16.70
2023-02-13T22:51:31.615Z,14.60
2023-02-13T22:54:04.098Z,14.70
2023-02-13T22:56:36.534Z,14.30
2023-02-13T22:59:08.592Z,13.60
2023-02-13T23:01:40.779Z,14.20
2023-02-13T23:04:13.102Z,14.10
2023-02-13T23:06:45.169Z,13.00
2023-02-13T23:09:17.541Z,13.80
2023-02-13T23:12:07.070Z,14.20
2023-02-13T23:14:39.654Z,13.70
2023-02-13T23:17:29.237Z,14.40
2023-02-13T23:20:01.298Z,13.60
2023-02-13T23:22:33.470Z,15.30
2023-02-13T23:25:06.135Z,15.80
2023-02-13T23:27:39.204Z,15.30
2023-02-13T23:30:15.470Z,14.60
2023-02-13T23:32:47.771Z,13.80
2023-02-13T23:35:49.383Z,12.30
2023-02-13T23:38:39.743Z,14.50
2023-02-13T23:41:22.469Z,14.10
2023-02-13T23:43:54.468Z,13.70
2023-02-13T23:46:26.602Z,14.80
2023-02-13T23:48:59.152Z,14.60
2023-02-13T23:51:31.340Z,11.00
2023-02-13T23:54:03.485Z,15.30
2023-02-13T23:56:35.419Z,15.10
2023-02-13T23:59:07.744Z,14.30
